Time;durP1;ratioP1;P1;durP2;ratioP2;P2;SDS_P1;SDS_P2;PMS_P1;PMS_P2;Temp;Humidity;BMP_temperature;BMP_pressure;BME280_temperature;BME280_humidity;BME280_pressure;Samples;Min_cycle;Max_cycle;Signal;HPM_P1;HPM_P2
2023/06/10 00:02:08;;;;;;;4.88;2.08;;;17.00;99.90;;;;;;5158015;27;20129;-56
2023/06/10 00:04:36;;;;;;;4.30;1.95;;;17.00;99.90;;;;;;5139616;27;20129;-56
2023/06/10 00:07:08;;;;;;;6.22;2.55;;;17.00;99.90;;;;;;5158037;27;20043;-56
2023/06/10 00:09:36;;;;;;;5.72;2.40;;;16.90;99.90;;;;;;5158080;27;20505;-56
2023/06/10 00:12:06;;;;;;;6.72;2.65;;;16.90;99.90;;;;;;5157900;27;20039;-56
2023/06/10 00:14:36;;;;;;;5.85;2.30;;;16.80;99.90;;;;;;5157911;27;20046;-56
2023/06/10 00:17:02;;;;;;;5.45;2.38;;;16.80;99.90;;;;;;5157956;27;20081;-56
2023/06/10 00:19:30;;;;;;;6.35;2.10;;;16.70;99.90;;;;;;5157812;27;20082;-56
2023/06/10 00:21:57;;;;;;;6.53;2.47;;;16.60;99.90;;;;;;5157889;27;20038;-55
2023/06/10 00:24:23;;;;;;;4.70;2.03;;;16.60;99.90;;;;;;5157240;27;20477;-55
2023/06/10 00:26:49;;;;;;;6.28;2.20;;;16.60;99.90;;;;;;5139339;27;20043;-56
2023/06/10 00:29:15;;;;;;;4.85;2.40;;;16.50;99.90;;;;;;5157544;27;20046;-56
2023/06/10 00:31:40;;;;;;;5.25;1.92;;;16.50;99.90;;;;;;5157364;27;20050;-55
2023/06/10 00:34:09;;;;;;;5.40;2.13;;;16.50;99.90;;;;;;5157782;27;20096;-56
2023/06/10 00:36:35;;;;;;;6.43;2.47;;;16.50;99.90;;;;;;5157803;27;20091;-56
2023/06/10 00:39:02;;;;;;;;;;;16.40;99.90;;;;;;5122545;27;20051;-56
2023/06/10 00:41:28;;;;;;;4.90;2.40;;;16.40;99.90;;;;;;5157399;27;19933;-56
2023/06/10 00:43:53;;;;;;;11.63;2.72;;;16.30;99.90;;;;;;5157165;27;20280;-56
2023/06/10 00:46:20;;;;;;;5.68;2.38;;;16.30;99.90;;;;;;5121981;27;20571;-56
2023/06/10 00:48:46;;;;;;;6.05;2.72;;;16.30;99.90;;;;;;5157249;27;20050;-56
2023/06/10 00:51:12;;;;;;;5.85;2.25;;;16.30;99.90;;;;;;5138991;27;20035;-56
2023/06/10 00:53:41;;;;;;;5.05;2.28;;;16.30;99.90;;;;;;5157174;27;20050;-56
2023/06/10 00:56:07;;;;;;;5.80;2.60;;;16.30;99.90;;;;;;5156863;27;20051;-56
2023/06/10 00:58:33;;;;;;;4.72;2.17;;;16.30;99.90;;;;;;5156884;27;20038;-56
2023/06/10 01:01:00;;;;;;;6.03;3.22;;;16.30;99.90;;;;;;5157069;27;20367;-56
2023/06/10 01:03:26;;;;;;;6.43;2.40;;;16.20;99.90;;;;;;5157011;27;20047;-56
2023/06/10 01:06:01;;;;;;;5.55;2.53;;;16.10;99.90;;;;;;5157218;27;20375;-56
2023/06/10 01:08:46;;;;;;;5.70;2.20;;;16.10;99.90;;;;;;5156934;27;20050;-56
2023/06/10 01:11:20;;;;;;;5.57;2.17;;;16.00;99.90;;;;;;5157125;27;20086;-56
2023/06/10 01:13:51;;;;;;;6.20;2.28;;;15.90;99.90;;;;;;5156878;27;20133;-55
2023/06/10 01:16:18;;;;;;;5.93;2.58;;;15.80;99.90;;;;;;5156716;27;20042;-55
2023/06/10 01:18:44;;;;;;;4.68;2.03;;;15.70;99.90;;;;;;5156704;27;20048;-55
2023/06/10 01:21:14;;;;;;;4.95;2.15;;;15.70;99.90;;;;;;5156577;27;20047;-55
2023/06/10 01:23:39;;;;;;;6.88;2.45;;;15.60;99.90;;;;;;5156398;27;20397;-55
2023/06/10 01:26:10;;;;;;;5.28;2.05;;;15.60;99.90;;;;;;5156528;27;20050;-54
2023/06/10 01:28:47;;;;;;;5.57;2.30;;;15.50;99.90;;;;;;5156525;27;20054;-54
2023/06/10 01:31:41;;;;;;;5.18;2.38;;;15.50;99.90;;;;;;5156342;27;20046;-54
2023/06/10 01:34:12;;;;;;;7.28;2.60;;;15.60;99.90;;;;;;5156150;27;20073;-54
2023/06/10 01:36:39;;;;;;;6.93;2.67;;;15.60;99.90;;;;;;5155626;27;20057;-55
2023/06/10 01:39:07;;;;;;;5.68;2.65;;;15.60;99.90;;;;;;5138001;27;20054;-56
2023/06/10 01:41:35;;;;;;;6.57;2.25;;;15.70;99.90;;;;;;5156197;27;20046;-55
2023/06/10 01:44:00;;;;;;;5.80;2.33;;;15.60;99.90;;;;;;5156127;27;20039;-54
2023/06/10 01:46:26;;;;;;;6.30;2.83;;;15.70;99.90;;;;;;5155967;27;20050;-55
2023/06/10 01:48:52;;;;;;;5.68;2.33;;;15.70;99.90;;;;;;5156259;27;20431;-55
2023/06/10 01:51:18;;;;;;;6.07;2.90;;;15.60;99.90;;;;;;5156517;27;20118;-54
2023/06/10 01:53:43;;;;;;;6.03;2.53;;;15.60;99.90;;;;;;5156053;27;20038;-55
2023/06/10 01:56:09;;;;;;;6.50;2.70;;;15.50;99.90;;;;;;5137703;27;20086;-56
2023/06/10 01:58:35;;;;;;;6.15;2.60;;;15.50;99.90;;;;;;5155878;27;20046;-54
2023/06/10 02:01:01;;;;;;;6.18;3.22;;;15.50;99.90;;;;;;5137150;27;20481;-56
2023/06/10 02:03:26;;;;;;;6.43;2.70;;;15.40;99.90;;;;;;5156209;27;20047;-55
2023/06/10 02:05:52;;;;;;;6.00;2.60;;;15.40;99.90;;;;;;5155868;27;20089;-55
2023/06/10 02:08:18;;;;;;;6.25;2.65;;;15.40;99.90;;;;;;5155772;27;20053;-55
2023/06/10 02:10:43;;;;;;;5.60;2.38;;;15.30;99.90;;;;;;5155885;27;20039;-56
2023/06/10 02:13:09;;;;;;;7.18;2.80;;;15.30;99.90;;;;;;5137409;27;20038;-56
2023/06/10 02:15:35;;;;;;;5.80;2.38;;;15.30;99.90;;;;;;5137039;27;20134;-56
2023/06/10 02:18:00;;;;;;;5.72;2.50;;;15.30;99.90;;;;;;5136976;27;20050;-54
2023/06/10 02:20:26;;;;;;;5.35;2.40;;;15.30;99.90;;;;;;5155617;27;20042;-55
2023/06/10 02:22:52;;;;;;;7.38;2.58;;;15.20;99.90;;;;;;5155854;27;20046;-55
2023/06/10 02:25:18;;;;;;;6.28;2.65;;;15.20;99.90;;;;;;5155401;27;20042;-55
2023/06/10 02:27:44;;;;;;;5.10;2.38;;;15.10;99.90;;;;;;5155490;27;20039;-56
2023/06/10 02:30:10;;;;;;;4.97;2.20;;;15.10;99.90;;;;;;5155419;27;20047;-55
2023/06/10 02:32:36;;;;;;;5.47;2.20;;;15.10;99.90;;;;;;5136679;27;20378;-55
2023/06/10 02:35:02;;;;;;;6.93;2.70;;;15.00;99.90;;;;;;5155851;27;20047;-56
2023/06/10 02:37:27;;;;;;;5.90;2.60;;;15.00;99.90;;;;;;5155326;27;20038;-55
2023/06/10 02:39:53;;;;;;;7.00;2.63;;;15.00;99.90;;;;;;5155397;27;20111;-55
2023/06/10 02:42:19;;;;;;;5.03;2.33;;;15.00;99.90;;;;;;5155348;27;20031;-55
2023/06/10 02:44:44;;;;;;;5.70;2.20;;;15.00;99.90;;;;;;5155359;27;20276;-55
2023/06/10 02:47:10;;;;;;;6.60;2.70;;;14.90;99.90;;;;;;5137093;27;20072;-54
2023/06/10 02:49:36;;;;;;;5.60;2.38;;;14.90;99.90;;;;;;5159871;27;20211;-55
2023/06/10 02:52:02;;;;;;;4.80;2.33;;;14.80;99.90;;;;;;5159492;27;20085;-55
2023/06/10 02:54:28;;;;;;;6.20;2.40;;;14.80;99.90;;;;;;5159383;27;20047;-55
2023/06/10 02:56:55;;;;;;;5.70;2.50;;;14.80;99.90;;;;;;5123679;27;20074;-55
2023/06/10 02:59:21;;;;;;;5.80;2.30;;;14.80;99.90;;;;;;5159323;27;20512;-55
2023/06/10 03:01:47;;;;;;;6.80;2.58;;;14.80;99.90;;;;;;5159375;27;20042;-55
2023/06/10 03:04:14;;;;;;;6.22;2.40;;;14.70;99.90;;;;;;5140985;27;20512;-55
2023/06/10 03:06:45;;;;;;;6.70;2.33;;;14.70;99.90;;;;;;5141111;27;20046;-55
2023/06/10 03:09:11;;;;;;;5.70;2.60;;;14.60;99.90;;;;;;5159334;27;20082;-54
2023/06/10 03:11:36;;;;;;;5.03;2.47;;;14.50;99.90;;;;;;5159015;27;20497;-55
2023/06/10 03:14:02;;;;;;;8.18;2.30;;;14.40;99.90;;;;;;5140660;27;20043;-54
2023/06/10 03:16:30;;;;;;;5.95;2.92;;;14.30;99.90;;;;;;5159139;27;20493;-53
2023/06/10 03:18:55;;;;;;;7.70;2.42;;;14.20;99.90;;;;;;5159406;27;20061;-54
2023/06/10 03:21:21;;;;;;;6.50;2.75;;;14.10;99.90;;;;;;5140497;27;20406;-55
2023/06/10 03:23:47;;;;;;;6.93;3.10;;;14.00;99.90;;;;;;5158787;27;20042;-54
2023/06/10 03:26:14;;;;;;;5.57;2.70;;;14.00;99.90;;;;;;5158954;27;20042;-55
2023/06/10 03:28:40;;;;;;;6.28;2.60;;;13.90;99.90;;;;;;5158490;27;20477;-53
2023/06/10 03:31:06;;;;;;;5.93;3.13;;;13.90;99.90;;;;;;5158466;27;20473;-53
2023/06/10 03:33:32;;;;;;;;;;;13.80;99.90;;;;;;5159022;27;20054;-54
2023/06/10 03:35:58;;;;;;;8.07;2.90;;;13.80;99.90;;;;;;5158687;27;19926;-54
2023/06/10 03:38:24;;;;;;;6.57;2.70;;;13.70;99.90;;;;;;5140637;27;20039;-54
2023/06/10 03:40:50;;;;;;;8.40;3.00;;;13.70;99.90;;;;;;5140298;27;20041;-55
2023/06/10 03:43:15;;;;;;;6.73;2.77;;;13.60;99.90;;;;;;5140000;27;20042;-55
2023/06/10 03:45:41;;;;;;;6.07;2.50;;;13.60;99.90;;;;;;5158600;27;20623;-55
2023/06/10 03:48:08;;;;;;;5.45;2.40;;;13.60;99.90;;;;;;5158406;27;20082;-53
2023/06/10 03:50:34;;;;;;;;;;;13.60;99.90;;;;;;5140970;27;20485;-55
2023/06/10 03:52:59;;;;;;;8.43;2.80;;;13.60;99.90;;;;;;5140382;27;19919;-55
2023/06/10 03:55:25;;;;;;;8.95;3.22;;;13.70;99.90;;;;;;5158308;27;20042;-55
2023/06/10 03:57:51;;;;;;;5.47;2.80;;;13.70;99.90;;;;;;5158152;27;20049;-54
2023/06/10 04:00:17;;;;;;;5.50;2.47;;;13.80;99.90;;;;;;5139308;27;20059;-53
2023/06/10 04:02:48;;;;;;;6.90;2.83;;;13.80;99.90;;;;;;5158195;27;20183;-55
2023/06/10 04:05:21;;;;;;;7.20;2.90;;;13.80;99.90;;;;;;5139924;27;20053;-54
2023/06/10 04:07:48;;;;;;;7.88;2.85;;;13.80;99.90;;;;;;5158344;27;20069;-54
2023/06/10 04:10:14;;;;;;;6.45;2.88;;;13.80;99.90;;;;;;5157860;27;20119;-52
2023/06/10 04:12:41;;;;;;;;;;;13.80;99.90;;;;;;5139682;27;20405;-54
2023/06/10 04:15:07;;;;;;;6.55;3.03;;;13.80;99.90;;;;;;5158213;27;20389;-52
2023/06/10 04:17:33;;;;;;;7.43;3.47;;;13.80;99.90;;;;;;5139214;27;20122;-54
2023/06/10 04:19:58;;;;;;;8.15;2.88;;;13.80;99.90;;;;;;5158112;27;20085;-54
2023/06/10 04:22:25;;;;;;;6.60;2.97;;;13.80;99.90;;;;;;5157789;27;20389;-52
2023/06/10 04:24:51;;;;;;;;;;;13.80;99.90;;;;;;5157979;27;20049;-52
2023/06/10 04:27:16;;;;;;;8.30;3.25;;;13.90;99.90;;;;;;5158140;27;19926;-54
2023/06/10 04:29:42;;;;;;;6.20;2.73;;;13.90;99.90;;;;;;5157683;27;20140;-52
2023/06/10 04:32:08;;;;;;;6.73;3.10;;;14.00;99.90;;;;;;5157435;27;20061;-54
2023/06/10 04:34:34;;;;;;;6.80;2.63;;;14.00;99.90;;;;;;5157740;27;20276;-52
2023/06/10 04:37:00;;;;;;;6.78;2.75;;;14.00;99.90;;;;;;5157507;27;20043;-54
2023/06/10 04:39:25;;;;;;;6.03;2.97;;;14.10;99.90;;;;;;5139113;27;20047;-53
2023/06/10 04:41:51;;;;;;;5.80;3.00;;;14.20;99.90;;;;;;5157400;27;20042;-55
2023/06/10 04:44:18;;;;;;;7.63;3.40;;;14.20;99.90;;;;;;5157424;27;20075;-53
2023/06/10 04:46:44;;;;;;;6.45;3.00;;;14.30;99.90;;;;;;5157372;27;20126;-51
2023/06/10 04:49:09;;;;;;;6.70;2.90;;;14.40;99.90;;;;;;5138802;27;20468;-53
2023/06/10 04:51:35;;;;;;;7.13;2.77;;;14.40;99.90;;;;;;5138683;27;20043;-53
2023/06/10 04:54:04;;;;;;;7.00;3.03;;;14.50;99.90;;;;;;5138903;27;20291;-54
2023/06/10 04:56:30;;;;;;;7.20;2.90;;;14.50;99.90;;;;;;5157094;27;20050;-54
2023/06/10 04:58:57;;;;;;;5.60;2.78;;;14.60;99.90;;;;;;5157097;27;20051;-52
2023/06/10 05:01:23;;;;;;;5.78;2.72;;;14.70;99.90;;;;;;5157002;27;20394;-53
2023/06/10 05:03:48;;;;;;;7.43;2.97;;;14.70;99.90;;;;;;5156925;27;20057;-52
2023/06/10 05:06:14;;;;;;;8.20;3.33;;;14.80;99.90;;;;;;5157582;27;20085;-52
2023/06/10 05:08:40;;;;;;;9.32;3.42;;;14.90;99.90;;;;;;5156734;27;20087;-54
2023/06/10 05:11:06;;;;;;;6.57;2.87;;;15.10;99.90;;;;;;5155920;27;20068;-52
2023/06/10 05:13:32;;;;;;;8.23;2.47;;;15.50;99.90;;;;;;5156826;27;20093;-53
2023/06/10 05:15:58;;;;;;;6.07;2.95;;;15.90;99.90;;;;;;5156753;27;20085;-53
2023/06/10 05:18:24;;;;;;;5.35;2.70;;;16.40;99.90;;;;;;5156706;27;20046;-54
2023/06/10 05:20:49;;;;;;;8.98;2.63;;;17.20;99.90;;;;;;5156578;27;20405;-54
2023/06/10 05:23:15;;;;;;;6.45;2.65;;;17.70;99.90;;;;;;5156433;27;20074;-53
2023/06/10 05:25:41;;;;;;;8.65;2.58;;;17.60;99.90;;;;;;5156344;27;20047;-53
2023/06/10 05:28:09;;;;;;;7.97;2.78;;;17.40;99.90;;;;;;5156544;27;20107;-53
2023/06/10 05:30:36;;;;;;;6.35;2.50;;;17.40;99.90;;;;;;5156682;27;20473;-52
2023/06/10 05:33:02;;;;;;;6.13;2.28;;;17.30;99.90;;;;;;5156436;27;20063;-52
2023/06/10 05:35:28;;;;;;;6.88;2.90;;;17.30;99.90;;;;;;5138079;27;20499;-53
2023/06/10 05:37:54;;;;;;;7.35;2.70;;;17.30;99.90;;;;;;5156257;27;20053;-54
2023/06/10 05:40:20;;;;;;;5.55;2.40;;;17.20;99.90;;;;;;5156686;27;20473;-53
2023/06/10 05:42:45;;;;;;;4.70;2.08;;;17.20;99.90;;;;;;5156260;27;20042;-53
2023/06/10 05:45:11;;;;;;;5.22;2.42;;;17.10;99.90;;;;;;5138065;27;20047;-53
2023/06/10 05:47:37;;;;;;;6.50;2.50;;;17.10;99.90;;;;;;5156179;27;20091;-55
2023/06/10 05:50:06;;;;;;;5.47;2.72;;;17.10;99.90;;;;;;5156045;27;20404;-52
2023/06/10 05:52:33;;;;;;;6.47;2.53;;;17.00;99.90;;;;;;5155924;27;20096;-54
2023/06/10 05:54:59;;;;;;;5.50;2.35;;;17.00;99.90;;;;;;5156234;27;20058;-53
2023/06/10 05:57:25;;;;;;;6.82;2.55;;;17.00;99.90;;;;;;5155976;27;20079;-53
2023/06/10 05:59:51;;;;;;;4.70;2.33;;;17.00;99.90;;;;;;5156229;27;20487;-54
2023/06/10 06:02:17;;;;;;;6.22;2.70;;;17.00;99.90;;;;;;5137602;27;20058;-53
2023/06/10 06:04:43;;;;;;;5.45;2.35;;;17.10;99.90;;;;;;5155893;27;20055;-54
2023/06/10 06:07:08;;;;;;;5.15;2.45;;;17.10;99.90;;;;;;5155642;27;20039;-52
2023/06/10 06:09:34;;;;;;;6.38;2.53;;;17.10;99.90;;;;;;5155781;27;20043;-53
2023/06/10 06:12:00;;;;;;;6.20;2.65;;;17.10;99.90;;;;;;5155871;27;20082;-54
2023/06/10 06:14:26;;;;;;;10.40;2.45;;;17.20;99.90;;;;;;5155948;27;20057;-54
2023/06/10 06:16:52;;;;;;;5.88;2.60;;;17.20;99.90;;;;;;5155624;27;20496;-53
2023/06/10 06:19:17;;;;;;;8.40;2.38;;;17.30;99.90;;;;;;5155538;27;20069;-54
2023/06/10 06:21:43;;;;;;;6.45;2.80;;;17.40;99.90;;;;;;5136922;27;20046;-54
2023/06/10 06:24:09;;;;;;;6.47;2.42;;;17.40;99.90;;;;;;5136702;27;20405;-49
2023/06/10 06:26:35;;;;;;;6.95;2.85;;;17.40;99.90;;;;;;5155569;27;20099;-53
2023/06/10 06:29:00;;;;;;;6.20;2.47;;;17.50;99.90;;;;;;5155478;27;20051;-52
2023/06/10 06:31:26;;;;;;;4.75;2.40;;;17.50;99.90;;;;;;5136799;27;20039;-54
2023/06/10 06:33:53;;;;;;;6.93;2.70;;;17.50;99.90;;;;;;5155315;27;20123;-52
2023/06/10 06:36:18;;;;;;;6.32;2.40;;;17.50;99.90;;;;;;5155369;27;20481;-54
2023/06/10 06:38:44;;;;;;;5.72;2.70;;;17.50;99.90;;;;;;5155307;27;20049;-53
2023/06/10 06:41:10;;;;;;;5.50;2.70;;;17.60;99.90;;;;;;5155391;27;20131;-55
2023/06/10 06:43:36;;;;;;;6.60;2.88;;;17.70;99.90;;;;;;5155341;27;20042;-54
2023/06/10 06:46:01;;;;;;;7.43;2.58;;;17.70;99.90;;;;;;5137033;27;20038;-54
2023/06/10 06:48:27;;;;;;;4.68;1.90;;;17.80;99.90;;;;;;5155262;27;20522;-54
2023/06/10 06:50:53;;;;;;;6.75;2.85;;;18.00;99.90;;;;;;5155234;27;20047;-55
2023/06/10 06:53:18;;;;;;;7.03;2.95;;;18.10;99.90;;;;;;5136535;27;20038;-55
2023/06/10 06:55:44;;;;;;;5.82;2.45;;;18.10;99.90;;;;;;5136806;27;20101;-53
2023/06/10 06:58:10;;;;;;;5.22;2.55;;;18.20;99.90;;;;;;5155374;27;20504;-53
2023/06/10 07:00:35;;;;;;;5.65;2.75;;;18.30;99.90;;;;;;5155199;27;20099;-54
2023/06/10 07:03:01;;;;;;;6.13;2.35;;;18.30;99.90;;;;;;5119760;27;20049;-53
2023/06/10 07:05:27;;;;;;;5.97;2.28;;;18.40;99.90;;;;;;5154870;27;20053;-52
2023/06/10 07:07:54;;;;;;;7.85;2.35;;;18.40;99.90;;;;;;5154812;27;20047;-54
2023/06/10 07:10:24;;;;;;;5.63;2.33;;;18.50;99.90;;;;;;5155515;27;20047;-55
2023/06/10 07:12:50;;;;;;;5.78;2.53;;;18.70;99.90;;;;;;5154961;27;20047;-53
2023/06/10 07:15:16;;;;;;;6.57;2.53;;;18.90;99.90;;;;;;5154780;27;20125;-53
2023/06/10 07:17:42;;;;;;;6.75;2.80;;;19.00;99.90;;;;;;5155163;27;20043;-53
2023/06/10 07:20:08;;;;;;;5.63;2.08;;;19.10;99.90;;;;;;5154848;27;20043;-54
2023/06/10 07:22:34;;;;;;;6.90;2.60;;;19.20;99.90;;;;;;5154724;27;20494;-53
2023/06/10 07:24:59;;;;;;;5.97;2.55;;;19.30;99.90;;;;;;5154979;27;20045;-53
2023/06/10 07:27:25;;;;;;;4.90;2.28;;;19.70;99.90;;;;;;5136921;27;20078;-53
2023/06/10 07:29:51;;;;;;;4.70;2.10;;;19.90;99.90;;;;;;5154948;27;20070;-55
2023/06/10 07:32:17;;;;;;;7.05;2.65;;;20.00;99.90;;;;;;5135933;27;20102;-54
2023/06/10 07:34:43;;;;;;;4.13;2.08;;;19.90;99.90;;;;;;5156192;27;20125;-55
2023/06/10 07:37:09;;;;;;;7.15;2.67;;;19.90;99.90;;;;;;5158726;27;20078;-55
2023/06/10 07:39:35;;;;;;;5.03;2.28;;;19.80;99.90;;;;;;5158666;27;20144;-51
2023/06/10 07:42:01;;;;;;;5.97;2.55;;;19.70;99.90;;;;;;5140320;27;20133;-54
2023/06/10 07:44:26;;;;;;;5.72;2.17;;;19.60;99.90;;;;;;5158634;27;20051;-54
2023/06/10 07:46:52;;;;;;;5.88;2.00;;;19.50;99.90;;;;;;5140336;27;20058;-53
2023/06/10 07:49:18;;;;;;;5.45;2.08;;;19.40;99.90;;;;;;5158488;27;20039;-54
2023/06/10 07:51:44;;;;;;;4.47;1.88;;;19.40;99.90;;;;;;5158209;27;20049;-50
2023/06/10 07:54:12;;;;;;;6.22;2.15;;;19.40;99.90;;;;;;5158500;27;20053;-53
2023/06/10 07:56:38;;;;;;;6.05;2.95;;;19.40;99.90;;;;;;5158502;27;20047;-53
2023/06/10 07:59:03;;;;;;;6.10;2.45;;;19.40;99.90;;;;;;5158695;27;20091;-53
2023/06/10 08:01:30;;;;;;;4.20;2.08;;;19.40;99.90;;;;;;5158193;27;20400;-54
2023/06/10 08:03:55;;;;;;;7.65;2.50;;;19.50;99.90;;;;;;5139920;27;20054;-54
2023/06/10 08:06:21;;;;;;;7.28;2.03;;;19.40;99.90;;;;;;5157899;27;20042;-55
2023/06/10 08:08:47;;;;;;;4.68;1.92;;;19.50;99.90;;;;;;5139935;27;20065;-53
2023/06/10 08:11:13;;;;;;;5.03;2.53;;;19.50;99.90;;;;;;5158091;27;20057;-52
2023/06/10 08:13:39;;;;;;;5.97;2.30;;;19.50;99.90;;;;;;5158009;27;20050;-52
2023/06/10 08:16:05;;;;;;;;;;;19.60;99.90;;;;;;5158197;27;20046;-53
2023/06/10 08:18:31;;;;;;;4.45;1.77;;;19.60;99.90;;;;;;5157951;27;19919;-53
2023/06/10 08:20:57;;;;;;;4.75;2.08;;;19.60;99.90;;;;;;5139174;27;20053;-53
2023/06/10 08:23:23;;;;;;;7.22;2.20;;;19.50;99.90;;;;;;5157751;27;20157;-54
2023/06/10 08:25:48;;;;;;;7.22;1.90;;;19.50;99.90;;;;;;5139259;27;20051;-55
2023/06/10 08:28:14;;;;;;;5.03;2.00;;;19.50;99.90;;;;;;5157547;27;20203;-55
2023/06/10 08:30:40;;;;;;;5.03;2.03;;;19.50;99.90;;;;;;5157720;27;20050;-56
2023/06/10 08:33:06;;;;;;;5.47;2.17;;;19.50;99.90;;;;;;5157451;27;20150;-55
2023/06/10 08:35:31;;;;;;;5.72;2.17;;;19.50;99.90;;;;;;5157325;27;20050;-53
2023/06/10 08:37:57;;;;;;;5.68;1.80;;;19.50;99.90;;;;;;5139385;27;20133;-53
2023/06/10 08:40:24;;;;;;;6.15;1.98;;;19.50;99.90;;;;;;5157559;27;20481;-55
2023/06/10 08:43:00;;;;;;;5.18;2.30;;;19.60;99.90;;;;;;5157656;27;20050;-55
2023/06/10 08:45:29;;;;;;;4.72;2.13;;;19.70;99.90;;;;;;5157216;27;20042;-52
2023/06/10 08:47:57;;;;;;;5.10;2.00;;;19.70;99.90;;;;;;5157091;27;20453;-54
2023/06/10 08:50:23;;;;;;;4.75;2.00;;;19.80;99.90;;;;;;5157302;27;20038;-53
2023/06/10 08:52:53;;;;;;;7.10;2.97;;;19.90;99.90;;;;;;5138691;27;20087;-54
2023/06/10 08:55:32;;;;;;;5.82;1.83;;;19.90;99.90;;;;;;5139036;27;20402;-54
2023/06/10 08:58:02;;;;;;;5.50;2.17;;;19.90;99.90;;;;;;5156987;27;20043;-53
2023/06/10 09:00:29;;;;;;;5.10;2.03;;;20.00;99.90;;;;;;5156925;27;20134;-54
2023/06/10 09:02:56;;;;;;;5.22;2.10;;;20.00;99.90;;;;;;5157060;27;20095;-54
2023/06/10 09:05:22;;;;;;;4.90;2.20;;;20.00;99.90;;;;;;5157008;27;20047;-55
2023/06/10 09:07:48;;;;;;;4.97;1.70;;;20.10;99.90;;;;;;5157018;27;20098;-52
2023/06/10 09:10:14;;;;;;;5.63;2.35;;;20.10;99.90;;;;;;5156822;27;20497;-55
2023/06/10 09:12:40;;;;;;;4.70;1.92;;;20.20;99.90;;;;;;5156784;27;20038;-56
2023/06/10 09:15:07;;;;;;;5.07;2.13;;;20.20;99.90;;;;;;5138374;27;20389;-55
2023/06/10 09:17:33;;;;;;;5.53;1.80;;;20.20;99.90;;;;;;5157074;27;20125;-55
2023/06/10 09:20:02;;;;;;;5.20;2.28;;;20.30;99.90;;;;;;5156742;27;20054;-53
2023/06/10 09:22:28;;;;;;;4.70;2.22;;;20.30;99.90;;;;;;5138294;27;20046;-55
2023/06/10 09:25:05;;;;;;;4.60;1.92;;;20.40;99.90;;;;;;5156543;27;20051;-55
2023/06/10 09:27:32;;;;;;;5.50;2.30;;;20.40;99.90;;;;;;5156206;27;20096;-56
2023/06/10 09:29:58;;;;;;;6.82;2.60;;;20.40;99.90;;;;;;5156507;27;20043;-55
2023/06/10 09:32:24;;;;;;;;;;;20.50;99.90;;;;;;5156611;27;20121;-56
2023/06/10 09:34:50;;;;;;;5.55;2.08;;;20.50;99.90;;;;;;5156440;27;19977;-55
2023/06/10 09:37:20;;;;;;;;;;;20.50;99.90;;;;;;5156827;27;20122;-55
2023/06/10 09:40:04;;;;;;;4.57;1.90;;;20.60;99.90;;;;;;5156273;27;19919;-54
2023/06/10 09:42:34;;;;;;;5.15;1.75;;;20.60;99.90;;;;;;5156870;27;20042;-55
2023/06/10 09:45:00;;;;;;;5.20;1.92;;;20.80;99.90;;;;;;5156321;27;20359;-55
2023/06/10 09:47:25;;;;;;;6.22;2.22;;;20.80;99.90;;;;;;5137740;27;20058;-55
2023/06/10 09:49:53;;;;;;;5.13;2.28;;;20.90;99.90;;;;;;5156222;27;20043;-55
2023/06/10 09:52:23;;;;;;;5.00;2.13;;;20.90;99.90;;;;;;5156068;27;20042;-53
2023/06/10 09:54:53;;;;;;;4.20;2.08;;;21.00;99.90;;;;;;5155806;27;20475;-56
2023/06/10 09:57:21;;;;;;;5.43;2.40;;;21.00;99.90;;;;;;5155300;27;20053;-56
2023/06/10 09:59:46;;;;;;;5.82;2.10;;;21.10;99.90;;;;;;5155919;27;20057;-56
2023/06/10 10:02:16;;;;;;;5.47;2.20;;;21.20;99.90;;;;;;5155806;27;20039;-56
2023/06/10 10:04:43;;;;;;;3.90;1.95;;;21.30;99.90;;;;;;5155581;27;20043;-55
2023/06/10 10:07:10;;;;;;;4.30;2.08;;;21.30;99.90;;;;;;5155466;27;20045;-57
2023/06/10 10:09:39;;;;;;;4.53;1.90;;;21.40;99.90;;;;;;5155818;27;20050;-56
2023/06/10 10:12:13;;;;;;;4.97;1.90;;;21.50;99.90;;;;;;5155643;27;20078;-55
2023/06/10 10:14:46;;;;;;;6.65;2.20;;;21.40;99.90;;;;;;5155696;27;20057;-55
2023/06/10 10:17:15;;;;;;;5.78;2.28;;;21.50;99.90;;;;;;5137281;27;20378;-55
2023/06/10 10:19:48;;;;;;;5.85;2.20;;;21.60;99.90;;;;;;5155350;27;20041;-56
2023/06/10 10:22:29;;;;;;;5.05;2.20;;;21.60;99.90;;;;;;5156122;27;20389;-56
2023/06/10 10:25:02;;;;;;;5.32;2.17;;;21.80;99.90;;;;;;5155570;27;20478;-56
2023/06/10 10:27:30;;;;;;;5.18;2.17;;;21.90;99.90;;;;;;5155468;27;20039;-56
2023/06/10 10:29:58;;;;;;;6.40;2.70;;;22.00;99.90;;;;;;5155270;27;20502;-56
2023/06/10 10:32:40;;;;;;;4.93;2.53;;;22.10;99.90;;;;;;5154902;27;20038;-56
2023/06/10 10:35:16;;;;;;;4.82;2.08;;;22.20;99.90;;;;;;5155837;27;20055;-55
2023/06/10 10:37:42;;;;;;;5.07;2.28;;;22.20;99.90;;;;;;5155947;27;20070;-56
2023/06/10 10:40:08;;;;;;;5.25;2.15;;;22.30;99.90;;;;;;5137042;27;20498;-57
2023/06/10 10:42:36;;;;;;;7.18;2.13;;;22.40;99.90;;;;;;5155085;27;20122;-56
2023/06/10 10:45:02;;;;;;;5.28;2.35;;;22.50;99.90;;;;;;5155302;27;20042;-54
2023/06/10 10:47:30;;;;;;;6.30;2.50;;;22.70;99.90;;;;;;5155422;27;20047;-55
2023/06/10 10:49:59;;;;;;;5.85;2.08;;;22.80;99.90;;;;;;5155214;27;20073;-54
2023/06/10 10:52:24;;;;;;;3.58;1.77;;;23.00;99.90;;;;;;5155200;27;20394;-56
2023/06/10 10:54:53;;;;;;;6.30;1.85;;;23.20;99.90;;;;;;5155257;27;20042;-55
2023/06/10 10:57:21;;;;;;;3.20;2.08;;;23.40;99.90;;;;;;5154950;27;20045;-55
2023/06/10 10:59:59;;;;;;;6.47;2.55;;;23.70;99.90;;;;;;5155183;27;20572;-54
2023/06/10 11:02:39;;;;;;;5.78;2.40;;;23.80;99.90;;;;;;5155626;27;20111;-57
2023/06/10 11:05:07;;;;;;;4.55;2.25;;;23.90;99.90;;;;;;5155103;27;20046;-56
2023/06/10 11:07:34;;;;;;;5.28;1.90;;;23.90;99.90;;;;;;5155049;27;20042;-55
2023/06/10 11:10:02;;;;;;;4.97;2.38;;;23.90;99.90;;;;;;5158520;27;20375;-55
2023/06/10 11:12:46;;;;;;;5.55;2.30;;;24.00;99.90;;;;;;5159253;27;20135;-56
2023/06/10 11:15:24;;;;;;;5.60;2.03;;;24.10;99.90;;;;;;5158936;27;20043;-54
2023/06/10 11:18:11;;;;;;;5.18;2.30;;;24.30;99.90;;;;;;5140964;27;20407;-57
2023/06/10 11:20:57;;;;;;;5.60;2.00;;;24.40;99.90;;;;;;5159060;27;20502;-56
2023/06/10 11:23:29;;;;;;;6.90;2.75;;;24.60;99.90;;;;;;5159032;27;20042;-56
2023/06/10 11:26:18;;;;;;;5.30;2.20;;;24.70;99.90;;;;;;5140680;27;20042;-55
2023/06/10 11:28:47;;;;;;;4.82;1.90;;;24.70;99.90;;;;;;5140457;27;20054;-56
2023/06/10 11:31:23;;;;;;;5.03;2.25;;;24.80;99.90;;;;;;5141126;27;20097;-55
2023/06/10 11:34:05;;;;;;;5.70;2.13;;;24.90;99.90;;;;;;5140076;27;20101;-56
2023/06/10 11:36:33;;;;;;;5.88;2.00;;;24.90;99.90;;;;;;5158867;27;20055;-55
2023/06/10 11:39:06;;;;;;;5.63;2.20;;;25.00;99.90;;;;;;5158604;27;20494;-56
2023/06/10 11:41:33;;;;;;;4.25;1.75;;;25.00;99.90;;;;;;5158619;27;20034;-55
2023/06/10 11:44:10;;;;;;;5.82;2.33;;;25.00;99.90;;;;;;5158654;27;20047;-57
2023/06/10 11:46:36;;;;;;;6.15;2.00;;;25.10;99.90;;;;;;5158666;27;20047;-56
2023/06/10 11:49:02;;;;;;;;;;;25.20;99.90;;;;;;5158694;27;20089;-55
2023/06/10 11:51:33;;;;;;;5.10;2.30;;;25.20;99.90;;;;;;5158228;27;20008;-56
2023/06/10 11:53:59;;;;;;;4.63;1.90;;;25.30;99.90;;;;;;5158184;27;20758;-55
2023/06/10 11:56:25;;;;;;;;;;;25.30;99.90;;;;;;5159090;27;20057;-57
2023/06/10 11:59:04;;;;;;;5.20;2.08;;;25.30;99.90;;;;;;5158661;27;19926;-57
2023/06/10 12:01:31;;;;;;;5.60;2.03;;;25.40;99.90;;;;;;5158220;27;20057;-56
2023/06/10 12:04:08;;;;;;;5.53;2.03;;;25.60;99.90;;;;;;5157953;27;20054;-56
2023/06/10 12:06:43;;;;;;;5.28;2.25;;;25.70;99.90;;;;;;5158436;27;20046;-52
2023/06/10 12:09:18;;;;;;;4.55;2.00;;;25.70;99.90;;;;;;5158049;27;20043;-55
2023/06/10 12:11:44;;;;;;;4.43;2.30;;;25.70;99.90;;;;;;5157761;27;20439;-55
2023/06/10 12:14:10;;;;;;;4.82;2.13;;;25.60;99.90;;;;;;5158050;27;20086;-56
2023/06/10 12:16:36;;;;;;;;;;;25.70;99.90;;;;;;5158270;27;20085;-57
2023/06/10 12:19:03;;;;;;;4.15;1.70;;;25.70;99.90;;;;;;5158324;27;19918;-55
2023/06/10 12:21:29;;;;;;;4.75;1.80;;;25.80;99.90;;;;;;5157259;27;20043;-56
2023/06/10 12:24:11;;;;;;;3.97;1.90;;;25.80;99.90;;;;;;5139570;27;20553;-57
2023/06/10 12:26:42;;;;;;;4.63;2.08;;;25.80;99.90;;;;;;5139471;27;20054;-56
2023/06/10 12:29:18;;;;;;;4.50;2.10;;;25.80;99.70;;;;;;5157641;27;20046;-57
2023/06/10 12:32:02;;;;;;;5.40;2.20;;;25.90;99.40;;;;;;5157605;27;20485;-56
2023/06/10 12:34:37;;;;;;;4.28;1.80;;;25.90;99.00;;;;;;5157699;27;20055;-56
2023/06/10 12:37:04;;;;;;;6.60;2.40;;;26.00;99.30;;;;;;5157554;27;20050;-57
2023/06/10 12:39:33;;;;;;;5.15;2.53;;;26.00;99.10;;;;;;5157364;27;20050;-57
2023/06/10 12:42:01;;;;;;;5.13;1.90;;;26.10;99.00;;;;;;5157436;27;20482;-56
2023/06/10 12:44:31;;;;;;;4.25;2.13;;;26.00;99.00;;;;;;5157605;27;20512;-56
2023/06/10 12:46:57;;;;;;;3.65;1.83;;;26.00;98.60;;;;;;5157383;27;20046;-56
2023/06/10 12:49:23;;;;;;;6.15;2.28;;;25.90;98.70;;;;;;5139068;27;20038;-58
2023/06/10 12:51:49;;;;;;;4.47;2.08;;;25.90;98.40;;;;;;5157178;27;20542;-57
2023/06/10 12:54:14;;;;;;;6.20;2.10;;;25.90;98.20;;;;;;5157175;27;20051;-57